Time;durP1;ratioP1;P1;durP2;ratioP2;P2;SDS_P1;SDS_P2;PMS_P1;PMS_P2;Temp;Humidity;BMP_temperature;BMP_pressure;BME280_temperature;BME280_humidity;BME280_pressure;Samples;Min_cycle;Max_cycle;Signal;HPM_P1;HPM_P2
2023/03/30 00:00:15;;;;;;;4.70;1.70;;;8.10;52.20;;;8.05;39.55;95474.47;5015344;28;20515;-57
2023/03/30 00:02:44;;;;;;;2.57;2.17;;;8.10;52.30;;;8.06;39.43;95473.53;5017016;28;20471;-61
2023/03/30 00:05:12;;;;;;;2.80;2.10;;;8.10;52.20;;;8.04;39.21;95468.38;5012285;28;20520;-62
2023/03/30 00:07:41;;;;;;;1.80;1.40;;;8.10;52.40;;;8.05;39.53;95467.44;5015382;28;20465;-58
2023/03/30 00:10:10;;;;;;;1.87;1.73;;;8.10;52.30;;;8.05;39.57;95472.66;5017657;28;20539;-62
2023/03/30 00:12:37;;;;;;;2.67;1.13;;;8.10;52.30;;;8.04;39.37;95475.38;5017762;28;20460;-61
2023/03/30 00:15:09;;;;;;;3.27;2.00;;;8.10;52.50;;;8.02;39.64;95472.88;5016450;28;20448;-62
2023/03/30 00:17:36;;;;;;;6.87;1.80;;;8.10;52.50;;;7.99;39.94;95478.34;5015353;28;20485;-57
2023/03/30 00:20:09;;;;;;;2.27;1.90;;;8.00;52.60;;;7.96;39.99;95468.06;5015126;28;20476;-57
2023/03/30 00:22:37;;;;;;;2.00;1.90;;;8.00;52.80;;;7.93;39.56;95473.53;5014407;28;20449;-62
2023/03/30 00:25:06;;;;;;;2.33;1.70;;;8.00;52.70;;;7.89;39.96;95472.91;5016886;28;20469;-58
2023/03/30 00:27:33;;;;;;;3.20;1.60;;;7.90;53.10;;;7.85;41.00;95471.50;5017964;28;20493;-57
2023/03/30 00:30:00;;;;;;;1.90;1.70;;;7.90;53.60;;;7.81;40.82;95466.56;5010041;28;20450;-58
2023/03/30 00:32:29;;;;;;;3.27;1.93;;;7.90;53.80;;;7.76;41.06;95471.28;5025184;28;20457;-62
2023/03/30 00:34:57;;;;;;;3.13;2.10;;;7.80;54.10;;;7.69;41.60;95483.97;5018892;28;20453;-56
2023/03/30 00:37:24;;;;;;;4.73;2.47;;;7.80;54.70;;;7.67;41.86;95472.78;5016346;28;20504;-58
2023/03/30 00:39:53;;;;;;;2.50;1.53;;;7.70;55.00;;;7.64;42.45;95486.09;5016503;28;20942;-57
2023/03/30 00:42:20;;;;;;;2.27;1.77;;;7.70;55.60;;;7.63;42.88;95473.94;5017059;28;20532;-57
2023/03/30 00:45:18;;;;;;;1.90;1.80;;;7.70;56.10;;;7.63;43.26;95481.78;5015906;28;20962;-56
2023/03/30 00:47:51;;;;;;;3.23;1.70;;;7.70;56.70;;;7.62;42.80;95472.25;5014914;28;20865;-61
2023/03/30 00:50:20;;;;;;;1.77;1.67;;;7.70;56.20;;;7.63;42.37;95472.13;5020038;28;20477;-57
2023/03/30 00:52:51;;;;;;;1.67;1.57;;;7.70;56.80;;;7.60;43.73;95476.75;5014581;28;20454;-61
2023/03/30 00:55:19;;;;;;;3.40;1.93;;;7.70;57.20;;;7.56;43.22;95480.53;5013446;28;20486;-57
2023/03/30 00:57:46;;;;;;;3.20;1.70;;;7.60;57.10;;;7.51;43.40;95476.47;5012875;28;20914;-62
2023/03/30 01:00:14;;;;;;;2.47;1.60;;;7.60;57.10;;;7.45;43.33;95474.25;5019709;28;20474;-55
2023/03/30 01:02:44;;;;;;;2.03;1.67;;;7.50;57.30;;;7.41;43.83;95467.56;5019096;28;20453;-62
2023/03/30 01:05:13;;;;;;;4.10;1.50;;;7.50;57.70;;;7.38;43.77;95465.16;5015181;28;20474;-56
2023/03/30 01:07:40;;;;;;;2.30;1.70;;;7.40;57.90;;;7.33;43.93;95481.16;5015176;28;21272;-61
2023/03/30 01:10:09;;;;;;;4.43;1.63;;;7.40;57.90;;;7.31;44.03;95479.59;5017088;28;20468;-57
2023/03/30 01:12:37;;;;;;;1.70;1.50;;;7.40;58.30;;;7.28;44.30;95474.56;5015328;28;20445;-56
2023/03/30 01:15:07;;;;;;;6.47;1.83;;;7.40;58.70;;;7.25;44.21;95470.41;5013718;28;20461;-55
2023/03/30 01:17:42;;;;;;;2.27;1.30;;;7.30;58.20;;;7.21;45.01;95475.94;5015774;28;20496;-61
2023/03/30 01:20:48;;;;;;;2.37;1.93;;;7.30;59.10;;;7.17;45.24;95481.38;5015407;28;20476;-57
2023/03/30 01:23:38;;;;;;;3.43;1.90;;;7.20;58.80;;;7.14;45.43;95475.50;5011730;28;20461;-61
2023/03/30 01:26:47;;;;;;;10.53;1.77;;;7.20;59.40;;;7.11;44.34;95475.72;5015522;28;20477;-60
2023/03/30 01:29:26;;;;;;;2.73;1.90;;;7.20;58.80;;;7.06;44.48;95470.78;4951273;28;21028;-56
2023/03/30 01:32:44;;;;;;;2.30;1.67;;;7.10;59.30;;;7.02;44.92;95481.56;5010122;28;20476;-61
2023/03/30 01:35:26;;;;;;;4.43;2.10;;;7.10;59.80;;;6.99;45.48;95480.00;5012669;28;20465;-56
2023/03/30 01:38:34;;;;;;;3.60;1.63;;;7.10;59.60;;;6.96;45.25;95480.22;5013715;28;20568;-61
2023/03/30 01:41:09;;;;;;;4.37;1.93;;;7.00;59.70;;;6.92;45.19;95490.00;4993462;28;20509;-57
2023/03/30 01:43:39;;;;;;;3.10;1.27;;;7.00;60.30;;;6.90;46.16;95478.84;5009454;28;20472;-56
2023/03/30 01:46:10;;;;;;;1.57;1.40;;;7.00;61.30;;;6.89;46.12;95481.53;5013205;28;20516;-55
2023/03/30 01:48:44;;;;;;;2.23;2.03;;;7.00;60.90;;;6.85;45.96;95480.94;5013941;28;20465;-55
2023/03/30 01:51:13;;;;;;;1.80;1.70;;;6.90;61.60;;;6.85;46.99;95482.69;5007886;28;20473;-58
2023/03/30 01:53:44;;;;;;;2.43;1.80;;;6.90;62.00;;;6.80;46.34;95468.16;5011111;28;20531;-61
2023/03/30 01:56:14;;;;;;;2.37;1.57;;;6.90;61.60;;;6.78;46.58;95483.09;5007056;28;20496;-56
2023/03/30 01:58:44;;;;;;;2.10;2.00;;;6.90;62.30;;;6.77;47.13;95488.41;5011425;28;20489;-62
2023/03/30 02:01:12;;;;;;;1.70;1.60;;;6.90;62.90;;;6.76;46.81;95482.38;5008984;28;20478;-62
2023/03/30 02:03:40;;;;;;;5.07;2.33;;;6.80;62.90;;;6.77;47.03;95486.66;5016250;28;20586;-62
2023/03/30 02:06:10;;;;;;;1.50;1.40;;;6.90;63.10;;;6.76;47.07;95477.13;5012298;28;20520;-56
2023/03/30 02:08:37;;;;;;;2.33;2.13;;;6.90;63.20;;;6.76;46.67;95477.13;5015695;28;20458;-57
2023/03/30 02:11:06;;;;;;;10.23;1.70;;;6.80;62.90;;;6.77;46.69;95473.59;5011398;28;20503;-58
2023/03/30 02:13:35;;;;;;;5.83;2.20;;;6.80;63.40;;;6.80;47.35;95477.75;5010070;28;20522;-62
2023/03/30 02:16:05;;;;;;;2.27;2.17;;;6.90;64.10;;;6.82;46.78;95483.75;5012943;28;20496;-57
2023/03/30 02:18:32;;;;;;;7.63;1.97;;;6.90;63.70;;;6.84;47.13;95483.63;5012140;28;20590;-62
2023/03/30 02:21:00;;;;;;;3.43;2.03;;;6.90;64.10;;;6.82;47.48;95489.81;5013163;28;21262;-56
2023/03/30 02:23:32;;;;;;;1.50;1.40;;;6.90;64.10;;;6.80;47.56;95483.84;5011120;28;20454;-62
2023/03/30 02:25:59;;;;;;;4.23;2.67;;;6.90;64.60;;;6.79;47.67;95481.31;5010330;28;20472;-57
2023/03/30 02:28:27;;;;;;;2.60;2.10;;;6.90;65.10;;;6.79;48.57;95487.38;5011336;28;20457;-62
2023/03/30 02:30:56;;;;;;;5.73;1.50;;;6.90;66.80;;;6.80;48.73;95489.06;5018142;28;21017;-62
2023/03/30 02:33:28;;;;;;;2.80;2.00;;;6.90;66.70;;;6.82;48.64;95496.81;5013129;28;20823;-58
2023/03/30 02:36:17;;;;;;;1.70;1.60;;;6.90;66.60;;;6.81;48.86;95493.34;5012408;28;20476;-61
2023/03/30 02:39:01;;;;;;;1.60;1.50;;;6.90;67.30;;;6.82;49.72;95497.63;5015952;28;20592;-62
2023/03/30 02:41:42;;;;;;;7.50;1.87;;;6.90;68.10;;;6.84;48.88;95501.94;5010628;28;20484;-62
2023/03/30 02:44:14;;;;;;;2.80;1.90;;;6.90;67.90;;;6.87;49.27;95514.81;5008565;28;20587;-62
2023/03/30 02:47:00;;;;;;;1.90;1.80;;;6.90;68.30;;;6.90;49.78;95501.53;5009792;28;20981;-62
2023/03/30 02:49:37;;;;;;;1.87;1.77;;;7.00;68.40;;;6.94;48.22;95510.84;5010562;28;20453;-57
2023/03/30 02:52:09;;;;;;;1.93;1.80;;;7.00;67.80;;;6.95;48.51;95502.06;5014998;28;20484;-62
2023/03/30 02:54:42;;;;;;;2.30;2.10;;;7.00;68.10;;;6.97;48.84;95501.03;5014700;28;20487;-57
2023/03/30 02:57:12;;;;;;;2.47;1.93;;;7.00;68.70;;;6.99;48.72;95495.69;5009943;28;20481;-59
2023/03/30 02:59:45;;;;;;;7.10;2.90;;;7.10;68.80;;;7.02;49.54;95505.94;5012352;28;20492;-57
2023/03/30 03:02:16;;;;;;;2.53;2.20;;;7.10;69.80;;;7.02;49.73;95503.34;5010665;28;20465;-61
2023/03/30 03:04:45;;;;;;;2.53;1.73;;;7.10;69.90;;;7.05;49.26;95504.88;5010848;28;20492;-57
2023/03/30 03:07:12;;;;;;;3.93;3.03;;;7.10;70.20;;;7.06;50.79;95507.41;5009818;28;20458;-62
2023/03/30 03:09:40;;;;;;;1.93;1.83;;;7.10;72.00;;;7.05;50.41;95510.13;5011817;28;20457;-60
2023/03/30 03:12:07;;;;;;;3.00;1.90;;;7.10;72.70;;;7.03;50.14;95502.38;5009451;28;20594;-56
2023/03/30 03:14:36;;;;;;;1.70;1.60;;;7.10;73.10;;;7.03;50.55;95510.22;5014338;28;20458;-61
2023/03/30 03:17:04;;;;;;;7.47;2.40;;;7.10;72.50;;;7.05;51.36;95510.13;5011545;28;20480;-56
2023/03/30 03:19:33;;;;;;;1.83;1.70;;;7.10;73.90;;;7.06;50.74;95522.28;5008175;28;20576;-62
2023/03/30 03:22:01;;;;;;;2.37;1.90;;;7.10;73.90;;;7.05;50.66;95513.59;5011850;28;20476;-56
2023/03/30 03:24:28;;;;;;;2.53;2.23;;;7.10;73.80;;;7.04;50.30;95516.31;5013566;28;20569;-61
2023/03/30 03:26:56;;;;;;;3.27;1.87;;;7.10;73.90;;;7.03;51.71;95510.22;5012860;28;20493;-62
2023/03/30 03:29:23;;;;;;;4.53;1.80;;;7.10;76.00;;;7.03;51.09;95510.22;5009650;28;20453;-60
2023/03/30 03:31:50;;;;;;;7.00;2.20;;;7.10;74.60;;;7.03;50.89;95510.22;5008519;28;20469;-56
2023/03/30 03:34:19;;;;;;;2.43;2.10;;;7.10;74.60;;;7.04;51.59;95514.53;5012516;28;20620;-58
2023/03/30 03:36:51;;;;;;;2.47;2.27;;;7.10;75.60;;;7.06;51.20;95514.41;5009574;28;20536;-62
2023/03/30 03:39:18;;;;;;;3.90;3.17;;;7.10;76.30;;;7.06;52.15;95514.41;5012867;28;20486;-62
2023/03/30 03:41:45;;;;;;;2.50;2.30;;;7.10;77.00;;;7.05;52.80;95529.28;5012692;28;20493;-58
2023/03/30 03:44:13;;;;;;;2.80;2.60;;;7.10;78.20;;;7.07;51.76;95526.56;5006164;28;20483;-62
2023/03/30 03:46:40;;;;;;;5.87;2.40;;;7.10;77.50;;;7.04;52.30;95527.59;5011998;28;20495;-63
2023/03/30 03:49:08;;;;;;;2.67;2.23;;;7.10;77.90;;;7.02;52.17;95526.88;5007239;28;20901;-58
2023/03/30 03:51:35;;;;;;;2.90;2.03;;;7.10;78.30;;;7.04;52.43;95535.44;5009782;28;20564;-64
2023/03/30 03:54:04;;;;;;;2.67;2.30;;;7.10;79.40;;;7.03;52.30;95536.38;5012480;28;20449;-58
2023/03/30 03:56:32;;;;;;;2.53;1.97;;;7.10;78.80;;;7.03;52.99;95533.75;5012204;28;20466;-58
2023/03/30 03:59:01;;;;;;;3.93;2.47;;;7.10;79.30;;;7.03;52.70;95538.16;5013215;28;21017;-62
2023/03/30 04:01:29;;;;;;;4.60;2.30;;;7.10;79.80;;;7.00;52.46;95541.81;5017928;28;20604;-57
2023/03/30 04:03:57;;;;;;;4.53;2.57;;;7.10;80.20;;;7.00;53.52;95542.66;5011020;28;20459;-61
2023/03/30 04:06:25;;;;;;;3.43;2.47;;;7.10;81.20;;;6.95;52.90;95534.28;5016027;28;20492;-62
2023/03/30 04:08:52;;;;;;;6.30;2.30;;;7.00;81.20;;;6.95;52.93;95536.88;5016802;28;20521;-64
2023/03/30 04:11:21;;;;;;;11.50;2.47;;;7.00;81.30;;;6.96;53.84;95535.97;5011500;28;20496;-64
2023/03/30 04:13:48;;;;;;;1.87;1.77;;;7.00;82.60;;;6.96;53.71;95532.50;5017176;28;20484;-56
2023/03/30 04:16:16;;;;;;;5.77;2.50;;;7.00;83.40;;;6.98;54.35;95534.06;5015003;28;20512;-58
2023/03/30 04:18:43;;;;;;;3.10;2.10;;;7.00;85.10;;;7.00;53.94;95536.59;5014748;28;20504;-56
2023/03/30 04:21:11;;;;;;;3.50;2.40;;;7.00;84.50;;;7.03;55.15;95530.31;5017729;28;20488;-56
2023/03/30 04:23:44;;;;;;;2.43;2.23;;;7.10;86.30;;;7.06;55.47;95528.31;5014927;28;20489;-63
2023/03/30 04:26:12;;;;;;;4.40;2.87;;;7.10;88.00;;;7.12;57.44;95522.69;5020200;28;20476;-62
2023/03/30 04:28:41;;;;;;;8.00;2.70;;;7.10;91.30;;;7.16;54.40;95520.72;5014845;28;20552;-57
2023/03/30 04:31:11;;;;;;;6.30;2.40;;;7.20;87.70;;;7.21;54.45;95526.47;5010716;28;20469;-62
2023/03/30 04:33:44;;;;;;;5.20;2.30;;;7.20;87.40;;;7.24;53.75;95522.81;5011735;28;20869;-63
2023/03/30 04:36:16;;;;;;;7.93;2.07;;;7.30;86.50;;;7.24;53.69;95525.44;5010050;28;21025;-58
2023/03/30 04:38:44;;;;;;;6.73;3.10;;;7.30;86.50;;;7.24;54.46;95533.28;5011712;28;20564;-57
2023/03/30 04:41:12;;;;;;;4.80;2.87;;;7.30;86.70;;;7.23;53.97;95531.59;5016348;28;20477;-64
2023/03/30 04:43:41;;;;;;;5.60;3.57;;;7.30;87.20;;;7.22;54.07;95535.16;5015546;28;20465;-62
2023/03/30 04:46:09;;;;;;;7.50;4.70;;;7.30;87.00;;;7.20;54.30;95529.19;5010351;28;21366;-64
2023/03/30 04:48:36;;;;;;;5.97;5.30;;;7.30;87.50;;;7.20;54.17;95526.59;5012545;28;20493;-57
2023/03/30 04:51:03;;;;;;;5.50;5.00;;;7.20;87.00;;;7.19;53.73;95533.59;5010584;28;20481;-58
2023/03/30 04:53:30;;;;;;;11.80;4.73;;;7.20;86.50;;;7.18;54.17;95535.34;5015776;28;20529;-58
2023/03/30 04:55:58;;;;;;;8.27;5.40;;;7.20;86.40;;;7.21;53.92;95530.88;5017233;28;20488;-63
2023/03/30 04:58:25;;;;;;;3.80;3.50;;;7.20;86.40;;;7.22;54.54;95535.16;5014802;28;20454;-62
2023/03/30 05:00:55;;;;;;;3.63;2.97;;;7.30;87.20;;;7.24;54.08;95538.53;5014553;28;20568;-55
2023/03/30 05:03:22;;;;;;;5.30;3.10;;;7.30;86.50;;;7.23;53.65;95550.75;5014290;28;21156;-58
2023/03/30 05:05:50;;;;;;;5.57;2.87;;;7.30;87.20;;;7.24;54.21;95549.00;5014791;28;20543;-57
2023/03/30 05:08:17;;;;;;;6.93;3.80;;;7.30;86.80;;;7.24;53.58;95551.59;5016406;28;20479;-61
2023/03/30 05:10:45;;;;;;;13.97;3.60;;;7.30;86.50;;;7.26;53.55;95557.56;5011456;28;20481;-57
2023/03/30 05:13:12;;;;;;;8.63;3.50;;;7.30;86.50;;;7.27;54.07;95559.25;5012250;28;20468;-62
2023/03/30 05:15:39;;;;;;;4.67;3.67;;;7.30;87.40;;;7.28;53.90;95547.81;5014875;28;20473;-62
2023/03/30 05:18:08;;;;;;;4.70;3.60;;;7.30;87.20;;;7.27;53.50;95547.00;5009815;28;20453;-62
2023/03/30 05:20:35;;;;;;;6.30;3.67;;;7.30;87.00;;;7.26;54.25;95542.69;5014814;28;20550;-62
2023/03/30 05:23:03;;;;;;;3.93;2.90;;;7.30;86.50;;;7.27;54.18;95538.31;5016411;28;20993;-56
2023/03/30 05:25:30;;;;;;;5.97;2.97;;;7.30;86.90;;;7.29;53.75;95550.34;5016563;28;20520;-61
2023/03/30 05:27:58;;;;;;;6.13;3.40;;;7.30;87.20;;;7.30;53.25;95538.13;5015306;28;20480;-62
2023/03/30 05:30:25;;;;;;;14.00;3.10;;;7.30;86.50;;;7.32;54.19;95536.22;5017775;28;20560;-62
2023/03/30 05:32:52;;;;;;;6.67;2.83;;;7.40;87.80;;;7.32;54.37;95544.06;5011350;28;20533;-58
2023/03/30 05:35:21;;;;;;;4.60;2.70;;;7.30;88.20;;;7.32;54.98;95534.44;5014185;28;20470;-62
2023/03/30 05:37:49;;;;;;;3.03;2.83;;;7.40;89.00;;;7.36;55.42;95542.94;5012479;28;20457;-57
2023/03/30 05:40:17;;;;;;;6.20;3.40;;;7.40;89.60;;;7.36;56.24;95548.16;5014923;28;20748;-62
2023/03/30 05:42:44;;;;;;;3.43;2.97;;;7.40;90.70;;;7.36;55.31;95543.75;5015468;28;20461;-62
2023/03/30 05:45:12;;;;;;;5.77;4.00;;;7.40;90.50;;;7.34;57.00;95547.41;5016670;28;20997;-62
2023/03/30 05:47:39;;;;;;;5.13;4.20;;;7.40;91.70;;;7.33;56.58;95543.97;5016142;28;20511;-61
2023/03/30 05:50:08;;;;;;;19.87;4.57;;;7.40;91.40;;;7.36;56.52;95542.94;5017719;28;20455;-57
2023/03/30 05:52:37;;;;;;;11.40;3.83;;;7.40;91.20;;;7.39;55.85;95557.56;5013214;28;20549;-57
2023/03/30 05:55:06;;;;;;;5.50;3.43;;;7.40;90.80;;;7.39;56.46;95544.50;5012245;28;20929;-62
2023/03/30 05:57:33;;;;;;;6.03;3.30;;;7.40;91.20;;;7.43;55.79;95554.66;5014713;28;20457;-57
2023/03/30 06:00:00;;;;;;;6.70;4.53;;;7.40;91.50;;;7.44;56.74;95556.34;5013798;28;20502;-57
2023/03/30 06:02:28;;;;;;;5.00;3.80;;;7.50;92.20;;;7.45;56.34;95559.78;5011239;28;20462;-58
2023/03/30 06:04:56;;;;;;;6.67;2.97;;;7.50;91.80;;;7.44;56.45;95558.94;5015147;28;20511;-62
2023/03/30 06:07:23;;;;;;;2.63;2.37;;;7.50;91.90;;;7.41;56.65;95563.56;5015431;28;20461;-62
2023/03/30 06:09:52;;;;;;;2.63;2.30;;;7.40;91.70;;;7.39;56.00;95568.03;5016172;28;20501;-58
2023/03/30 06:12:19;;;;;;;3.93;2.40;;;7.40;91.20;;;7.39;56.02;95578.50;5014546;28;20469;-56
2023/03/30 06:14:47;;;;;;;6.07;2.70;;;7.40;91.60;;;7.37;56.66;95578.59;5015496;28;20444;-62
2023/03/30 06:17:14;;;;;;;3.83;2.40;;;7.40;91.80;;;7.34;56.43;95576.19;5015115;28;20457;-58
2023/03/30 06:19:42;;;;;;;6.57;3.53;;;7.40;91.50;;;7.31;56.33;95581.63;5014713;28;20584;-58
2023/03/30 06:22:10;;;;;;;3.97;3.60;;;7.40;91.90;;;7.28;56.72;95581.84;5015235;28;20542;-57
2023/03/30 06:24:37;;;;;;;4.03;3.50;;;7.30;92.50;;;7.24;56.16;95586.44;5014728;28;20540;-62
2023/03/30 06:27:06;;;;;;;6.47;3.37;;;7.30;91.50;;;7.22;57.00;95582.25;5014444;28;21037;-57
2023/03/30 06:29:33;;;;;;;9.13;3.30;;;7.30;92.40;;;7.20;56.74;95578.91;5017705;28;20457;-62
2023/03/30 06:32:02;;;;;;;8.80;3.27;;;7.20;92.30;;;7.20;57.48;95584.13;5013862;28;21082;-62
2023/03/30 06:34:29;;;;;;;5.27;3.00;;;7.20;92.70;;;7.18;56.55;95582.44;5014199;28;20541;-62
2023/03/30 06:36:57;;;;;;;5.70;3.60;;;7.20;92.20;;;7.21;57.91;95591.88;5014915;28;20468;-57
2023/03/30 06:39:25;;;;;;;5.07;2.97;;;7.20;93.10;;;7.24;58.43;95581.22;5017789;28;20497;-58
2023/03/30 06:41:52;;;;;;;14.43;3.57;;;7.30;93.80;;;7.30;57.76;95585.22;5013217;28;21175;-57
2023/03/30 06:44:22;;;;;;;7.73;3.67;;;7.30;93.80;;;7.40;57.86;95593.28;5012711;28;20462;-57
2023/03/30 06:46:49;;;;;;;6.90;3.57;;;7.40;93.80;;;7.51;57.60;95586.41;5014207;28;20849;-62
2023/03/30 06:49:16;;;;;;;6.20;3.70;;;7.50;94.10;;;7.62;57.03;95585.66;5015279;28;20460;-58
2023/03/30 06:51:43;;;;;;;4.13;3.80;;;7.60;93.60;;;7.71;56.53;95595.53;5015393;28;20478;-56
2023/03/30 06:54:11;;;;;;;6.87;3.37;;;7.70;92.60;;;7.78;56.55;95598.53;5015857;28;20456;-62
2023/03/30 06:56:38;;;;;;;6.90;3.60;;;7.80;92.60;;;7.81;56.04;95589.66;5015669;28;20495;-62
2023/03/30 06:59:06;;;;;;;6.80;3.23;;;7.80;92.50;;;7.86;55.85;95588.38;5010155;28;20576;-64
2023/03/30 07:01:34;;;;;;;5.70;3.70;;;7.90;92.30;;;7.97;55.38;95586.81;5012908;28;20563;-62
2023/03/30 07:04:02;;;;;;;7.70;3.63;;;7.90;91.90;;;8.08;55.89;95592.97;5010570;28;20855;-63
2023/03/30 07:06:29;;;;;;;5.40;3.87;;;8.10;92.40;;;8.22;55.04;95604.28;5013741;28;20869;-63
2023/03/30 07:08:57;;;;;;;8.93;4.50;;;8.20;91.80;;;8.35;54.84;95588.50;5014926;28;20618;-58
2023/03/30 07:11:25;;;;;;;3.70;3.37;;;8.30;91.30;;;8.48;54.57;95588.53;5013658;28;21009;-58
2023/03/30 07:13:54;;;;;;;8.40;3.60;;;8.40;91.20;;;8.58;54.10;95590.41;5013392;28;20540;-63
2023/03/30 07:16:21;;;;;;;4.60;3.20;;;8.50;90.70;;;8.72;54.31;95591.16;5016912;28;20471;-58
2023/03/30 07:18:50;;;;;;;5.80;3.63;;;8.70;90.90;;;8.85;53.62;95599.00;5015884;28;20469;-56
2023/03/30 07:21:18;;;;;;;8.33;3.13;;;8.80;90.60;;;8.97;53.89;95596.31;5013641;28;20493;-62
2023/03/30 07:23:45;;;;;;;3.33;3.00;;;8.90;90.40;;;9.13;53.44;95605.69;5011762;28;20810;-57
2023/03/30 07:26:13;;;;;;;5.13;3.50;;;9.00;89.70;;;9.29;53.01;95594.91;5015532;28;20973;-62
2023/03/30 07:28:40;;;;;;;4.77;3.10;;;9.20;89.00;;;9.48;52.64;95599.59;5013040;28;20464;-56
2023/03/30 07:31:09;;;;;;;4.20;3.23;;;9.40;88.50;;;9.66;52.31;95600.84;5014110;28;20489;-63
2023/03/30 07:33:36;;;;;;;5.10;3.00;;;9.50;87.70;;;9.82;51.90;95595.28;5015205;28;20460;-57
2023/03/30 07:36:07;;;;;;;9.20;4.07;;;9.70;86.70;;;10.01;51.69;95591.25;5017536;28;20531;-63
2023/03/30 07:38:34;;;;;;;3.50;3.20;;;9.90;86.20;;;10.25;51.06;95587.66;5016880;28;20453;-61
2023/03/30 07:41:06;;;;;;;7.70;3.47;;;10.10;84.30;;;10.52;50.46;95592.56;5015557;28;20489;-63
2023/03/30 07:43:33;;;;;;;3.47;3.10;;;10.30;82.60;;;10.79;50.15;95586.06;5018779;28;20457;-57
2023/03/30 07:46:00;;;;;;;4.80;3.93;;;10.60;81.50;;;11.04;49.50;95585.72;5018590;28;20469;-63
2023/03/30 07:48:28;;;;;;;8.10;3.30;;;10.90;80.60;;;11.25;49.13;95590.22;5014545;28;20457;-57
2023/03/30 07:51:01;;;;;;;16.00;4.20;;;11.10;79.40;;;11.39;48.83;95589.91;5018806;28;20853;-57
2023/03/30 07:53:29;;;;;;;6.23;4.00;;;11.20;78.40;;;11.54;48.86;95589.59;5019319;28;20551;-58
2023/03/30 07:55:57;;;;;;;7.00;3.60;;;11.40;77.10;;;11.68;47.90;95593.72;5017620;28;20474;-62
2023/03/30 07:58:25;;;;;;;8.67;4.17;;;11.50;76.40;;;11.96;48.05;95600.16;5019922;28;20555;-57
2023/03/30 08:00:52;;;;;;;6.27;3.43;;;11.80;76.40;;;12.28;47.16;95588.66;5019190;28;20527;-61
2023/03/30 08:03:20;;;;;;;6.87;4.20;;;12.10;74.80;;;12.49;47.01;95593.88;5022325;28;20507;-58
2023/03/30 08:05:54;;;;;;;12.93;3.77;;;12.40;74.20;;;12.74;46.54;95587.28;5013779;28;20509;-57
2023/03/30 08:08:21;;;;;;;6.03;3.47;;;12.60;73.20;;;12.97;45.76;95582.59;5018302;28;20477;-63
2023/03/30 08:10:50;;;;;;;4.63;3.80;;;12.80;71.80;;;13.15;45.49;95585.41;5017604;28;20480;-62
2023/03/30 08:13:17;;;;;;;6.50;3.90;;;13.00;70.50;;;13.30;44.45;95582.34;5018452;28;20448;-56
2023/03/30 08:15:45;;;;;;;8.20;2.93;;;13.10;68.60;;;13.36;44.38;95587.09;5016815;28;20465;-62
2023/03/30 08:18:12;;;;;;;5.40;3.30;;;13.20;66.60;;;13.44;44.78;95577.50;5016541;28;20458;-62
2023/03/30 08:20:41;;;;;;;3.30;3.00;;;13.30;67.90;;;13.54;45.27;95574.88;5014509;28;20528;-62
2023/03/30 08:23:08;;;;;;;6.50;3.73;;;13.40;69.10;;;13.68;45.02;95578.03;5020382;28;20453;-58
2023/03/30 08:25:35;;;;;;;8.63;4.43;;;13.50;68.60;;;13.74;43.24;95574.81;5016097;28;20816;-62
2023/03/30 08:28:04;;;;;;;10.17;3.90;;;13.60;65.40;;;13.76;44.00;95579.00;5013288;28;20449;-63
2023/03/30 08:30:32;;;;;;;5.73;4.23;;;13.60;65.80;;;13.85;43.55;95572.03;5018012;28;20580;-58
2023/03/30 08:32:59;;;;;;;5.47;3.40;;;13.70;64.70;;;14.11;43.28;95568.75;5015812;28;20518;-62
2023/03/30 08:35:27;;;;;;;8.20;3.27;;;14.00;65.20;;;14.57;43.58;95567.03;5017221;28;20572;-56
2023/03/30 08:37:55;;;;;;;8.77;3.70;;;14.30;65.30;;;15.07;42.56;95565.78;5017310;28;20453;-58
2023/03/30 08:40:23;;;;;;;9.23;3.90;;;14.90;64.40;;;15.66;41.37;95574.09;5016067;28;20583;-63
2023/03/30 08:43:17;;;;;;;4.80;4.30;;;15.40;61.80;;;16.17;40.12;95571.63;5017691;28;21001;-57
2023/03/30 08:45:45;;;;;;;4.83;3.10;;;15.90;59.80;;;16.45;40.06;95574.97;5018103;28;20504;-57
2023/03/30 08:48:17;;;;;;;6.20;3.80;;;16.20;58.60;;;16.49;37.19;95570.16;5010740;28;21033;-58
2023/03/30 08:50:47;;;;;;;6.03;3.40;;;16.30;54.80;;;16.27;38.62;95566.25;5016576;28;20487;-57
2023/03/30 08:53:14;;;;;;;7.40;3.37;;;16.20;55.20;;;16.05;39.06;95575.53;5014693;28;20449;-56
2023/03/30 08:55:43;;;;;;;8.00;2.70;;;16.00;56.10;;;15.96;39.43;95566.72;5017692;28;20485;-56
2023/03/30 08:58:15;;;;;;;4.90;3.40;;;15.90;56.30;;;15.99;39.53;95568.19;5016956;28;21394;-62
2023/03/30 09:00:44;;;;;;;5.73;2.40;;;15.90;57.20;;;16.05;39.28;95563.13;5016576;28;21030;-57
2023/03/30 09:03:18;;;;;;;6.80;2.63;;;15.90;56.50;;;16.22;39.05;95557.88;5019088;28;20452;-63
2023/03/30 09:05:49;;;;;;;3.00;2.80;;;16.00;55.70;;;16.54;38.91;95554.56;5012273;28;20504;-62
2023/03/30 09:08:19;;;;;;;3.27;2.67;;;16.30;56.80;;;16.95;38.70;95552.09;5013822;28;20506;-58
2023/03/30 09:10:49;;;;;;;4.33;2.30;;;16.60;56.30;;;17.35;38.27;95555.81;5015505;28;20481;-58
2023/03/30 09:13:20;;;;;;;3.73;2.17;;;17.00;55.50;;;17.82;37.34;95551.66;5015012;28;20454;-57
2023/03/30 09:15:49;;;;;;;13.47;4.70;;;17.50;54.50;;;18.48;36.93;95540.84;5016124;28;21010;-59
2023/03/30 09:18:19;;;;;;;2.73;2.43;;;18.10;54.30;;;19.05;35.33;95536.28;5018458;28;20465;-57
2023/03/30 09:20:47;;;;;;;3.97;2.60;;;18.60;52.10;;;19.57;35.00;95545.44;5016088;28;20500;-58
2023/03/30 09:23:16;;;;;;;6.90;3.00;;;19.10;52.30;;;20.06;34.48;95537.84;5015931;28;20453;-63
2023/03/30 09:25:48;;;;;;;6.40;3.00;;;19.60;51.60;;;20.23;34.27;95535.84;5014775;28;20476;-58
2023/03/30 09:28:20;;;;;;;3.63;2.60;;;19.80;50.10;;;20.07;33.19;95536.00;5014197;28;20450;-58
2023/03/30 09:30:49;;;;;;;10.83;5.17;;;19.80;48.50;;;19.72;33.33;95522.31;5015314;28;20474;-62
2023/03/30 09:33:28;;;;;;;5.47;3.40;;;19.60;48.40;;;19.45;33.44;95515.69;5011989;28;20462;-59
2023/03/30 09:36:07;;;;;;;8.10;2.40;;;19.30;48.50;;;19.32;33.51;95517.09;5019678;28;21020;-58
2023/03/30 09:38:40;;;;;;;9.23;1.90;;;19.20;48.50;;;19.44;33.79;95520.19;5016000;28;20511;-58
2023/03/30 09:41:46;;;;;;;3.13;1.90;;;19.20;48.10;;;19.77;33.13;95522.63;5016176;28;20505;-62
2023/03/30 09:44:23;;;;;;;5.03;2.10;;;19.40;48.40;;;20.12;31.72;95522.91;5001849;28;20483;-63
2023/03/30 09:46:52;;;;;;;1.87;1.20;;;19.70;46.50;;;20.41;32.09;95516.75;5020232;28;20523;-57
2023/03/30 09:49:19;;;;;;;2.80;1.77;;;20.00;46.20;;;20.76;31.65;95514.38;5017400;28;20449;-63
2023/03/30 09:51:56;;;;;;;3.77;1.80;;;20.40;46.00;;;21.11;31.20;95517.22;5011542;28;20476;-64
2023/03/30 09:54:23;;;;;;;2.40;2.20;;;20.70;45.60;;;21.36;30.78;95508.81;5012777;28;20952;-58
2023/03/30 09:56:51;;;;;;;3.20;1.97;;;20.90;44.70;;;21.40;30.69;95510.09;5015928;28;20545;-58
2023/03/30 09:59:30;;;;;;;3.50;1.77;;;21.00;44.40;;;21.36;29.83;95498.09;5014513;28;20450;-63
2023/03/30 10:02:10;;;;;;;2.20;2.10;;;21.00;43.70;;;21.24;30.45;95499.63;5015446;28;20601;-57
2023/03/30 10:04:56;;;;;;;2.37;2.17;;;20.90;43.80;;;21.00;29.57;95501.66;5013804;28;20477;-63
2023/03/30 10:07:24;;;;;;;3.50;2.03;;;20.80;42.60;;;20.68;31.15;95500.25;5015859;28;20512;-58
2023/03/30 10:09:51;;;;;;;2.13;1.80;;;20.50;43.90;;;20.28;29.71;95497.91;5014638;28;20457;-63
2023/03/30 10:12:19;;;;;;;3.63;1.90;;;20.10;41.80;;;19.89;31.43;95501.63;5012710;28;20485;-63
2023/03/30 10:14:53;;;;;;;3.83;1.63;;;19.80;43.60;;;19.67;31.09;95492.63;5015337;28;20452;-58
2023/03/30 10:17:23;;;;;;;2.47;1.60;;;19.50;44.10;;;19.48;32.09;95483.31;5014216;28;20445;-58
2023/03/30 10:19:52;;;;;;;3.00;1.83;;;19.30;44.40;;;19.29;31.87;95479.31;5016267;28;20460;-58
2023/03/30 10:22:21;;;;;;;2.80;1.90;;;19.10;44.70;;;19.20;31.81;95481.19;5015894;28;20493;-63
2023/03/30 10:24:53;;;;;;;2.60;1.63;;;19.00;45.00;;;19.23;31.45;95475.50;5016353;28;20850;-58
2023/03/30 10:27:26;;;;;;;14.17;6.20;;;18.90;44.30;;;19.41;32.50;95469.03;5011085;28;20569;-57
2023/03/30 10:29:55;;;;;;;5.60;4.50;;;19.10;45.60;;;19.79;31.47;95469.03;5010345;28;20499;-63
2023/03/30 10:32:26;;;;;;;16.20;12.47;;;19.40;45.00;;;20.19;31.63;95462.44;5009708;28;20603;-63
2023/03/30 10:34:54;;;;;;;6.87;4.20;;;19.70;45.20;;;20.47;30.94;95460.94;5009120;28;20476;-57
2023/03/30 10:37:27;;;;;;;1.80;1.70;;;20.00;44.40;;;20.60;30.42;95463.75;5020744;28;20461;-63
2023/03/30 10:39:54;;;;;;;2.30;2.20;;;20.20;43.60;;;20.76;30.60;95466.25;5010371;28;20493;-59